createdAt,value
2017-06-26T00:01:37.375Z,7.10
2017-06-26T00:04:04.953Z,7.07
2017-06-26T00:06:32.464Z,7.00
2017-06-26T00:09:00.499Z,7.87
2017-06-26T00:11:28.124Z,6.60
2017-06-26T00:13:55.660Z,7.63
2017-06-26T00:16:23.183Z,7.30
2017-06-26T00:18:51.569Z,7.90
2017-06-26T00:21:19.869Z,8.00
2017-06-26T00:23:47.400Z,7.87
2017-06-26T00:26:15.724Z,8.70
2017-06-26T00:28:43.249Z,8.60
2017-06-26T00:31:10.794Z,8.83
2017-06-26T00:33:38.720Z,7.40
2017-06-26T00:36:06.256Z,8.67
2017-06-26T00:38:33.792Z,8.30
2017-06-26T00:41:01.364Z,7.77
2017-06-26T00:43:29.014Z,7.73
2017-06-26T00:45:56.573Z,7.93
2017-06-26T00:48:24.175Z,7.57
2017-06-26T00:50:51.707Z,7.83
2017-06-26T00:53:19.240Z,7.73
2017-06-26T00:55:46.841Z,8.50
2017-06-26T00:58:15.238Z,7.40
2017-06-26T01:00:42.772Z,6.20
2017-06-26T01:03:10.361Z,7.20
2017-06-26T01:05:37.880Z,7.50
2017-06-26T01:08:05.415Z,7.20
2017-06-26T01:10:33.457Z,6.60
2017-06-26T01:13:00.984Z,6.80
2017-06-26T01:15:28.507Z,6.83
2017-06-26T01:17:56.083Z,7.00
2017-06-26T01:20:23.609Z,6.27
2017-06-26T01:22:51.139Z,8.03
2017-06-26T01:25:20.309Z,8.87
2017-06-26T01:27:48.130Z,7.10
2017-06-26T01:30:15.664Z,7.37
2017-06-26T01:32:43.232Z,7.20
2017-06-26T01:35:11.525Z,7.80
2017-06-26T01:37:39.049Z,6.80
2017-06-26T01:40:07.393Z,7.63
2017-06-26T01:42:34.912Z,7.53
2017-06-26T01:45:02.438Z,7.87
2017-06-26T01:47:30.012Z,7.03
2017-06-26T01:49:57.545Z,7.73
2017-06-26T01:52:25.056Z,8.40
2017-06-26T01:54:52.631Z,9.17
2017-06-26T01:57:20.163Z,7.10
2017-06-26T01:59:47.700Z,8.40
2017-06-26T02:02:16.730Z,7.67
2017-06-26T02:04:44.255Z,7.60
2017-06-26T02:07:11.792Z,7.30
2017-06-26T02:09:40.131Z,7.17
2017-06-26T02:12:07.660Z,6.53
2017-06-26T02:14:35.193Z,6.83
2017-06-26T02:17:03.524Z,7.00
2017-06-26T02:19:31.061Z,6.97
2017-06-26T02:21:58.592Z,6.63
2017-06-26T02:24:26.160Z,7.10
2017-06-26T02:26:53.781Z,7.93
2017-06-26T02:29:21.307Z,7.43
2017-06-26T02:31:48.872Z,7.10
2017-06-26T02:34:16.393Z,7.93
2017-06-26T02:36:44.747Z,7.17
2017-06-26T02:39:13.196Z,6.60
2017-06-26T02:41:40.723Z,7.37
2017-06-26T02:44:08.236Z,7.53
2017-06-26T02:46:35.803Z,7.20
2017-06-26T02:49:04.100Z,7.87
2017-06-26T02:51:31.636Z,8.00
2017-06-26T02:53:59.195Z,8.00
2017-06-26T02:56:26.720Z,7.47
2017-06-26T02:58:54.519Z,8.70
2017-06-26T03:01:22.097Z,9.10
2017-06-26T03:03:49.639Z,8.13
2017-06-26T03:06:17.177Z,8.27
2017-06-26T03:08:44.750Z,8.43
2017-06-26T03:11:12.951Z,8.40
2017-06-26T03:13:40.472Z,8.07
2017-06-26T03:16:08.800Z,7.60
2017-06-26T03:18:36.323Z,8.10
2017-06-26T03:21:03.839Z,7.60
2017-06-26T03:23:31.420Z,9.00
2017-06-26T03:25:59.724Z,8.37
2017-06-26T03:28:27.252Z,7.10
2017-06-26T03:30:55.580Z,7.10
2017-06-26T03:33:23.100Z,7.27
2017-06-26T03:35:50.616Z,7.63
2017-06-26T03:38:18.175Z,7.20
2017-06-26T03:40:45.703Z,7.83
2017-06-26T03:43:13.240Z,8.60
2017-06-26T03:45:40.802Z,7.80
2017-06-26T03:48:08.320Z,7.40
2017-06-26T03:50:37.443Z,8.07
2017-06-26T03:53:05.016Z,6.97
2017-06-26T03:55:32.549Z,7.17
2017-06-26T03:58:00.096Z,7.83
2017-06-26T04:00:28.447Z,7.73
2017-06-26T04:02:55.977Z,7.70
2017-06-26T04:05:23.508Z,8.70
2017-06-26T04:07:51.072Z,7.90
2017-06-26T04:10:18.597Z,8.00
2017-06-26T04:12:46.111Z,7.93
2017-06-26T04:15:13.687Z,8.70
2017-06-26T04:17:41.215Z,9.00
2017-06-26T04:20:08.745Z,7.53
2017-06-26T04:22:36.332Z,8.50
2017-06-26T04:25:03.867Z,7.33
2017-06-26T04:27:31.459Z,8.10
2017-06-26T04:29:59.036Z,7.90
2017-06-26T04:32:26.552Z,7.30
2017-06-26T04:34:54.080Z,8.00
2017-06-26T04:37:21.640Z,7.43
2017-06-26T04:39:49.183Z,8.03
2017-06-26T04:42:16.707Z,7.67
2017-06-26T04:44:44.566Z,7.60
2017-06-26T04:47:12.087Z,6.73
2017-06-26T04:49:40.414Z,7.67
2017-06-26T04:52:07.994Z,7.10
2017-06-26T04:54:36.168Z,6.90
2017-06-26T04:57:04.148Z,6.77
2017-06-26T04:59:32.490Z,7.17
2017-06-26T05:02:00.006Z,7.40
2017-06-26T05:04:27.536Z,6.83
2017-06-26T05:06:55.888Z,7.37
2017-06-26T05:09:23.424Z,6.90
2017-06-26T05:11:50.969Z,6.63
2017-06-26T05:14:18.544Z,6.70
2017-06-26T05:16:46.072Z,7.40
2017-06-26T05:19:13.605Z,6.67
2017-06-26T05:21:41.191Z,6.40
2017-06-26T05:24:08.724Z,6.80
2017-06-26T05:26:36.280Z,6.87
2017-06-26T05:29:04.623Z,6.93
2017-06-26T05:31:32.135Z,6.93
2017-06-26T05:34:00.289Z,6.50
2017-06-26T05:36:28.627Z,5.77
2017-06-26T05:38:56.147Z,6.40
2017-06-26T05:41:23.713Z,5.80
2017-06-26T05:43:51.320Z,6.10
2017-06-26T05:46:18.914Z,5.60
2017-06-26T05:48:46.470Z,6.00
2017-06-26T05:51:14.044Z,5.63
2017-06-26T05:53:41.589Z,6.20
2017-06-26T05:56:09.132Z,5.73
2017-06-26T05:58:37.548Z,5.50
2017-06-26T06:01:05.146Z,6.30
2017-06-26T06:03:32.675Z,5.87
2017-06-26T06:06:00.263Z,5.03
2017-06-26T06:08:27.799Z,5.20
2017-06-26T06:10:55.327Z,5.37
2017-06-26T06:13:22.904Z,5.20
2017-06-26T06:15:50.440Z,4.70
2017-06-26T06:18:17.972Z,5.30
2017-06-26T06:20:46.316Z,5.57
2017-06-26T06:23:13.877Z,5.40
2017-06-26T06:25:41.412Z,5.00
2017-06-26T06:28:08.981Z,5.30
2017-06-26T06:30:36.518Z,4.70
2017-06-26T06:33:04.048Z,4.97
2017-06-26T06:35:31.608Z,4.80
2017-06-26T06:37:59.148Z,4.50
2017-06-26T06:40:27.459Z,4.67
2017-06-26T06:42:55.041Z,4.10
2017-06-26T06:45:22.564Z,3.80
2017-06-26T06:47:50.107Z,4.70
2017-06-26T06:50:18.457Z,3.97
2017-06-26T06:52:45.983Z,4.43
2017-06-26T06:55:13.510Z,4.07
2017-06-26T06:57:41.094Z,4.77
2017-06-26T07:00:08.624Z,4.70
2017-06-26T07:02:36.181Z,4.20
2017-06-26T07:05:03.776Z,4.00
2017-06-26T07:07:32.604Z,3.70
2017-06-26T07:10:00.344Z,4.10
2017-06-26T07:12:28.049Z,4.00
2017-06-26T07:14:55.590Z,4.23
2017-06-26T07:17:23.898Z,3.70
2017-06-26T07:19:51.474Z,3.47
2017-06-26T07:22:19.301Z,3.67
2017-06-26T07:24:47.607Z,3.20
2017-06-26T07:27:15.188Z,3.70
2017-06-26T07:29:42.712Z,3.40
2017-06-26T07:32:10.238Z,3.03
2017-06-26T07:34:38.596Z,3.37
2017-06-26T07:37:06.211Z,3.73
2017-06-26T07:39:33.747Z,3.30
2017-06-26T07:42:01.316Z,3.40
2017-06-26T07:44:28.842Z,3.93
2017-06-26T07:46:57.139Z,3.27
2017-06-26T07:49:24.699Z,3.07
2017-06-26T07:51:52.228Z,3.00
2017-06-26T07:54:19.752Z,4.17
2017-06-26T07:56:47.316Z,3.80
2017-06-26T07:59:14.844Z,4.23
2017-06-26T08:01:42.380Z,3.77
2017-06-26T08:04:10.710Z,3.00
2017-06-26T08:06:38.224Z,4.20
2017-06-26T08:09:05.755Z,3.43
2017-06-26T08:11:33.323Z,4.23
2017-06-26T08:14:01.610Z,2.70
2017-06-26T08:16:29.418Z,2.93
2017-06-26T08:18:56.988Z,3.27
2017-06-26T08:21:24.508Z,3.50
2017-06-26T08:23:52.056Z,3.03
2017-06-26T08:26:19.652Z,2.80
2017-06-26T08:28:47.178Z,3.17
2017-06-26T08:31:20.134Z,3.27
2017-06-26T08:33:47.679Z,2.80
2017-06-26T08:36:15.225Z,3.50
2017-06-26T08:38:42.792Z,2.90
2017-06-26T08:41:10.328Z,3.40
2017-06-26T08:43:37.856Z,3.57
2017-06-26T08:46:05.429Z,3.43
2017-06-26T08:48:32.965Z,3.33
2017-06-26T08:51:00.488Z,4.50
2017-06-26T08:53:28.822Z,3.67
2017-06-26T08:55:56.348Z,3.47
2017-06-26T08:58:23.879Z,3.70
2017-06-26T09:00:51.463Z,3.37
2017-06-26T09:03:19.884Z,3.07
2017-06-26T09:05:47.413Z,3.67
2017-06-26T09:08:15.066Z,3.00
2017-06-26T09:10:42.605Z,3.40
2017-06-26T09:13:10.170Z,3.40
2017-06-26T09:15:37.776Z,2.70
2017-06-26T09:18:05.292Z,3.40
2017-06-26T09:20:32.992Z,2.90
2017-06-26T09:23:00.584Z,2.87
2017-06-26T09:25:28.114Z,3.53
2017-06-26T09:27:55.640Z,3.03
2017-06-26T09:30:23.209Z,2.83
2017-06-26T09:32:50.728Z,2.73
2017-06-26T09:35:19.041Z,3.10
2017-06-26T09:37:46.600Z,3.83
2017-06-26T09:40:14.128Z,3.27
2017-06-26T09:42:41.648Z,3.07
2017-06-26T09:45:09.212Z,3.53
2017-06-26T09:47:36.746Z,3.17
2017-06-26T09:50:04.300Z,3.73
2017-06-26T09:52:31.860Z,3.00
2017-06-26T09:54:59.393Z,3.10
2017-06-26T09:57:26.919Z,2.73
2017-06-26T09:59:54.479Z,3.07
2017-06-26T10:02:22.765Z,2.80
2017-06-26T10:04:50.284Z,3.07
2017-06-26T10:07:17.876Z,3.40
2017-06-26T10:09:45.384Z,2.90
2017-06-26T10:12:12.896Z,2.93
2017-06-26T10:14:41.270Z,2.50
2017-06-26T10:17:08.800Z,2.90
2017-06-26T10:19:36.344Z,2.80
2017-06-26T10:22:04.828Z,2.97
2017-06-26T10:24:32.345Z,3.17
2017-06-26T10:26:59.864Z,3.10
2017-06-26T10:29:27.436Z,3.30
2017-06-26T10:31:54.968Z,3.23
2017-06-26T10:34:22.512Z,3.13
2017-06-26T10:36:50.089Z,3.13
2017-06-26T10:39:18.377Z,2.93
2017-06-26T10:41:46.684Z,3.23
2017-06-26T10:44:14.256Z,3.20
2017-06-26T10:46:41.777Z,3.03
2017-06-26T10:49:09.296Z,3.53
2017-06-26T10:51:37.231Z,2.60
2017-06-26T10:54:04.748Z,2.77
2017-06-26T10:56:33.039Z,3.40
2017-06-26T10:59:00.597Z,3.17
2017-06-26T11:01:28.127Z,2.80
2017-06-26T11:03:56.412Z,3.20
2017-06-26T11:06:24.742Z,2.63
2017-06-26T11:08:52.280Z,2.77
2017-06-26T11:11:19.803Z,2.70
2017-06-26T11:13:47.371Z,2.37
2017-06-26T11:16:14.895Z,3.07
2017-06-26T11:18:42.420Z,3.00
2017-06-26T11:21:09.970Z,3.23
2017-06-26T11:23:37.496Z,3.13
2017-06-26T11:26:05.825Z,2.87
2017-06-26T11:28:33.347Z,2.63
2017-06-26T11:31:00.882Z,2.70
2017-06-26T11:33:28.456Z,2.70
2017-06-26T11:35:55.988Z,2.80
2017-06-26T11:38:23.729Z,2.70
2017-06-26T11:40:51.291Z,2.80
2017-06-26T11:43:18.813Z,2.53
2017-06-26T11:45:46.349Z,2.50
2017-06-26T11:48:13.948Z,2.37
2017-06-26T11:50:41.467Z,2.53
2017-06-26T11:53:08.988Z,2.30
2017-06-26T11:55:36.563Z,3.40
2017-06-26T11:58:04.076Z,3.07
2017-06-26T12:00:31.611Z,2.57
2017-06-26T12:02:59.175Z,2.13
2017-06-26T12:05:26.704Z,2.50
2017-06-26T12:07:54.236Z,2.30
2017-06-26T12:10:23.348Z,1.97
2017-06-26T12:12:50.910Z,1.73
2017-06-26T12:15:18.444Z,2.20
2017-06-26T12:17:46.017Z,2.50
2017-06-26T12:20:13.540Z,2.00
2017-06-26T12:22:41.071Z,2.30
2017-06-26T12:25:08.639Z,2.77
2017-06-26T12:27:36.156Z,2.10
2017-06-26T12:30:03.688Z,1.90
2017-06-26T12:32:32.033Z,2.20
2017-06-26T12:34:59.552Z,2.30
2017-06-26T12:37:27.085Z,2.23
2017-06-26T12:39:54.659Z,1.70
2017-06-26T12:42:23.508Z,2.20
2017-06-26T12:44:51.824Z,2.13
2017-06-26T12:47:21.183Z,2.10
2017-06-26T12:49:48.717Z,2.30
2017-06-26T12:52:16.246Z,2.13
2017-06-26T12:54:43.805Z,1.63
2017-06-26T12:57:11.319Z,2.17
2017-06-26T12:59:38.844Z,2.20
2017-06-26T13:02:06.408Z,2.13
2017-06-26T13:04:33.937Z,2.23
2017-06-26T13:07:01.485Z,2.27
2017-06-26T13:09:29.816Z,1.90
2017-06-26T13:11:57.353Z,2.00
2017-06-26T13:14:24.865Z,1.93
2017-06-26T13:16:53.217Z,2.40
2017-06-26T13:19:20.725Z,2.07
2017-06-26T13:21:48.263Z,2.30
2017-06-26T13:24:16.790Z,2.40
2017-06-26T13:26:44.360Z,1.80
2017-06-26T13:29:11.890Z,1.90
2017-06-26T13:31:39.468Z,2.10
2017-06-26T13:34:07.332Z,1.93
2017-06-26T13:36:34.847Z,1.90
2017-06-26T13:39:02.439Z,1.90
2017-06-26T13:41:29.961Z,2.00
2017-06-26T13:43:57.475Z,2.00
2017-06-26T13:46:25.044Z,1.70
2017-06-26T13:48:52.567Z,1.80
2017-06-26T13:51:20.079Z,1.90
2017-06-26T13:53:47.686Z,1.70
2017-06-26T13:56:15.199Z,1.93
2017-06-26T13:58:42.724Z,1.60
2017-06-26T14:01:10.285Z,1.83
2017-06-26T14:03:37.813Z,2.00
2017-06-26T14:06:05.340Z,1.90
2017-06-26T14:08:32.917Z,2.10
2017-06-26T14:11:00.433Z,2.20
2017-06-26T14:13:28.728Z,2.00
2017-06-26T14:15:56.293Z,2.23
2017-06-26T14:18:23.821Z,1.90
2017-06-26T14:20:51.339Z,1.80
2017-06-26T14:23:18.900Z,1.90
2017-06-26T14:25:46.420Z,2.00
2017-06-26T14:28:13.972Z,1.40
2017-06-26T14:30:42.251Z,1.73
2017-06-26T14:33:09.797Z,2.40
2017-06-26T14:35:38.129Z,1.53
2017-06-26T14:38:05.664Z,1.90
2017-06-26T14:40:33.762Z,1.50
2017-06-26T14:43:01.323Z,2.00
2017-06-26T14:45:28.860Z,1.67
2017-06-26T14:47:56.706Z,1.90
2017-06-26T14:50:24.277Z,1.70
2017-06-26T14:52:51.799Z,1.43
2017-06-26T14:55:20.083Z,1.60
2017-06-26T14:57:47.667Z,1.50
2017-06-26T15:00:15.192Z,1.50
2017-06-26T15:02:42.736Z,1.50
2017-06-26T15:05:11.072Z,1.73
2017-06-26T15:07:38.604Z,1.50
2017-06-26T15:10:06.136Z,1.40
2017-06-26T15:12:33.701Z,1.50
2017-06-26T15:15:01.229Z,1.20
2017-06-26T15:17:28.748Z,1.20
2017-06-26T15:19:56.309Z,1.43
2017-06-26T15:22:23.828Z,1.47
2017-06-26T15:24:51.372Z,1.50
2017-06-26T15:27:19.711Z,1.73
2017-06-26T15:29:47.244Z,1.70
2017-06-26T15:32:14.771Z,1.80
2017-06-26T15:34:43.103Z,1.40
2017-06-26T15:37:10.632Z,1.40
2017-06-26T15:39:38.156Z,1.90
2017-06-26T15:42:05.737Z,2.00
2017-06-26T15:44:33.282Z,1.83
2017-06-26T15:47:01.587Z,2.10
2017-06-26T15:49:29.151Z,1.80
2017-06-26T15:51:56.680Z,1.80
2017-06-26T15:54:24.198Z,1.83
2017-06-26T15:56:51.775Z,1.90
2017-06-26T15:59:20.056Z,1.97
2017-06-26T16:01:48.350Z,1.70
2017-06-26T16:04:15.935Z,1.57
2017-06-26T16:06:43.463Z,1.90
2017-06-26T16:09:10.988Z,2.17
2017-06-26T16:11:38.572Z,1.90
2017-06-26T16:14:06.100Z,1.60
2017-06-26T16:16:33.643Z,1.80
2017-06-26T16:19:01.204Z,1.87
2017-06-26T16:21:28.729Z,2.30
2017-06-26T16:23:56.279Z,1.83
2017-06-26T16:26:23.873Z,1.90
2017-06-26T16:28:51.409Z,2.70
2017-06-26T16:31:18.936Z,1.73
2017-06-26T16:33:46.544Z,1.70
2017-06-26T16:36:14.076Z,2.00
2017-06-26T16:38:41.591Z,1.60
2017-06-26T16:41:09.928Z,2.00
2017-06-26T16:43:37.440Z,2.10
2017-06-26T16:46:04.979Z,1.93
2017-06-26T16:48:32.544Z,1.83
2017-06-26T16:51:00.823Z,1.73
2017-06-26T16:53:28.360Z,1.80
2017-06-26T16:55:55.946Z,1.90
2017-06-26T16:58:24.353Z,2.00
2017-06-26T17:00:52.649Z,2.00
2017-06-26T17:03:20.211Z,1.87
2017-06-26T17:05:47.728Z,1.77
2017-06-26T17:08:15.253Z,2.00
2017-06-26T17:10:42.846Z,2.30
2017-06-26T17:13:10.391Z,2.00
2017-06-26T17:15:37.927Z,1.90
2017-06-26T17:18:06.272Z,1.90
2017-06-26T17:20:33.792Z,1.80
2017-06-26T17:23:01.323Z,2.10
2017-06-26T17:25:28.900Z,1.90
2017-06-26T17:27:56.420Z,1.70
2017-06-26T17:30:23.945Z,1.83
2017-06-26T17:32:51.515Z,2.03
2017-06-26T17:35:19.027Z,2.10
2017-06-26T17:37:46.552Z,2.40
2017-06-26T17:40:14.116Z,2.10
2017-06-26T17:42:41.637Z,2.63
2017-06-26T17:45:09.168Z,2.00
2017-06-26T17:47:36.752Z,2.00
2017-06-26T17:50:04.286Z,2.10
2017-06-26T17:52:31.846Z,2.03
2017-06-26T17:54:59.419Z,2.20
2017-06-26T17:57:26.932Z,2.20
2017-06-26T17:59:55.220Z,2.40
2017-06-26T18:02:22.779Z,2.60
2017-06-26T18:04:50.300Z,2.30
2017-06-26T18:07:17.903Z,2.30
2017-06-26T18:09:45.428Z,2.47
2017-06-26T18:12:12.952Z,2.30
2017-06-26T18:14:40.519Z,1.97
2017-06-26T18:17:08.055Z,2.00
2017-06-26T18:19:35.609Z,2.53
2017-06-26T18:22:03.232Z,1.87
2017-06-26T18:24:30.764Z,1.77
2017-06-26T18:26:58.344Z,1.90
2017-06-26T18:29:26.713Z,2.03
2017-06-26T18:31:55.038Z,1.63
2017-06-26T18:34:22.577Z,1.77
2017-06-26T18:36:50.149Z,1.90
2017-06-26T18:39:17.693Z,1.90
2017-06-26T18:41:45.209Z,2.00
2017-06-26T18:44:12.792Z,1.50
2017-06-26T18:46:41.072Z,2.10
2017-06-26T18:49:08.611Z,2.43
2017-06-26T18:51:36.968Z,2.20
2017-06-26T18:54:04.495Z,2.00
2017-06-26T18:56:32.014Z,2.07
2017-06-26T18:59:00.348Z,2.27
2017-06-26T19:01:27.876Z,1.97
2017-06-26T19:03:55.391Z,2.40
2017-06-26T19:06:23.718Z,2.73
2017-06-26T19:08:51.231Z,2.00
2017-06-26T19:11:18.744Z,2.03
2017-06-26T19:13:46.351Z,2.17
2017-06-26T19:16:13.875Z,2.30
2017-06-26T19:18:41.413Z,2.07
2017-06-26T19:21:08.976Z,2.30
2017-06-26T19:23:36.521Z,2.00
2017-06-26T19:26:04.031Z,2.47
2017-06-26T19:28:32.355Z,2.20
2017-06-26T19:30:59.872Z,2.60
2017-06-26T19:33:28.161Z,2.47
2017-06-26T19:35:55.719Z,2.40
2017-06-26T19:38:23.246Z,2.70
2017-06-26T19:40:50.777Z,2.90
2017-06-26T19:43:18.330Z,2.50
2017-06-26T19:45:45.852Z,2.53
2017-06-26T19:48:13.391Z,2.70
2017-06-26T19:50:40.966Z,2.63
2017-06-26T19:53:08.498Z,2.87
2017-06-26T19:55:36.799Z,2.60
2017-06-26T19:58:04.406Z,2.47
2017-06-26T20:00:31.929Z,2.50
2017-06-26T20:02:59.448Z,2.63
2017-06-26T20:05:27.784Z,2.70
2017-06-26T20:07:55.311Z,2.40
2017-06-26T20:10:22.839Z,2.67
2017-06-26T20:12:51.187Z,3.07
2017-06-26T20:15:18.718Z,2.67
2017-06-26T20:17:46.244Z,2.93
2017-06-26T20:20:14.556Z,2.90
2017-06-26T20:22:42.087Z,2.37
2017-06-26T20:25:09.652Z,2.67
2017-06-26T20:27:37.192Z,3.27
2017-06-26T20:30:04.720Z,3.00
2017-06-26T20:32:32.285Z,2.43
2017-06-26T20:34:59.809Z,2.70
2017-06-26T20:37:27.334Z,2.93
2017-06-26T20:39:54.909Z,2.70
2017-06-26T20:42:22.434Z,3.13
2017-06-26T20:44:49.963Z,3.10
2017-06-26T20:47:17.560Z,2.70
2017-06-26T20:49:45.136Z,3.17
2017-06-26T20:52:12.660Z,2.50
2017-06-26T20:54:40.248Z,2.83
2017-06-26T20:57:07.768Z,2.20
2017-06-26T20:59:36.056Z,2.43
2017-06-26T21:02:03.627Z,2.70
2017-06-26T21:04:31.147Z,2.50
2017-06-26T21:06:58.664Z,2.60
2017-06-26T21:09:26.227Z,2.63
2017-06-26T21:11:53.762Z,2.80
2017-06-26T21:14:21.291Z,2.57
2017-06-26T21:16:49.652Z,2.53
2017-06-26T21:19:17.184Z,2.47
2017-06-26T21:21:44.708Z,2.70
2017-06-26T21:24:12.280Z,2.50
2017-06-26T21:26:39.796Z,2.00
2017-06-26T21:29:08.084Z,2.60
2017-06-26T21:31:36.419Z,2.07
2017-06-26T21:34:03.928Z,2.50
2017-06-26T21:36:31.447Z,2.30
2017-06-26T21:38:59.012Z,1.90
2017-06-26T21:41:26.540Z,2.20
2017-06-26T21:43:54.064Z,2.30
2017-06-26T21:46:21.632Z,2.13
2017-06-26T21:48:49.155Z,2.40
2017-06-26T21:51:17.451Z,2.20
2017-06-26T21:53:45.035Z,2.50
2017-06-26T21:56:12.565Z,2.30
2017-06-26T21:58:40.100Z,2.10
2017-06-26T22:01:08.470Z,2.47
2017-06-26T22:03:35.997Z,2.50
2017-06-26T22:06:03.554Z,2.30
2017-06-26T22:08:31.115Z,2.40
2017-06-26T22:10:58.668Z,2.73
2017-06-26T22:13:26.203Z,2.30
2017-06-26T22:15:53.766Z,2.83
2017-06-26T22:18:21.292Z,2.70
2017-06-26T22:20:48.809Z,2.27
2017-06-26T22:23:16.372Z,2.40
2017-06-26T22:25:43.884Z,2.97
2017-06-26T22:28:11.411Z,2.80
2017-06-26T22:30:39.308Z,3.20
2017-06-26T22:33:06.836Z,3.10
2017-06-26T22:35:35.115Z,3.20
2017-06-26T22:38:03.447Z,3.00
2017-06-26T22:40:30.961Z,3.90
2017-06-26T22:42:58.471Z,3.00
2017-06-26T22:45:26.042Z,2.83
2017-06-26T22:47:53.568Z,3.10
2017-06-26T22:50:21.852Z,2.90
2017-06-26T22:52:49.412Z,3.30
2017-06-26T22:55:16.943Z,2.80
2017-06-26T22:57:44.456Z,3.10
2017-06-26T23:00:12.009Z,2.67
2017-06-26T23:02:39.527Z,2.87
2017-06-26T23:05:07.083Z,3.33
2017-06-26T23:07:34.629Z,3.00
2017-06-26T23:10:02.147Z,3.13
2017-06-26T23:12:30.503Z,2.80
2017-06-26T23:14:58.012Z,2.70
2017-06-26T23:17:25.535Z,2.20
2017-06-26T23:19:53.103Z,2.53
2017-06-26T23:22:21.172Z,2.37
2017-06-26T23:24:48.703Z,2.70
2017-06-26T23:27:17.212Z,2.40
2017-06-26T23:29:45.521Z,3.30
2017-06-26T23:32:13.052Z,3.03
2017-06-26T23:34:40.617Z,3.20
2017-06-26T23:37:08.147Z,3.03
2017-06-26T23:39:35.660Z,2.30
2017-06-26T23:42:03.215Z,2.93
2017-06-26T23:44:30.785Z,2.13
2017-06-26T23:46:58.324Z,2.30
2017-06-26T23:49:25.896Z,2.50
2017-06-26T23:51:53.459Z,2.33
2017-06-26T23:54:24.102Z,1.90
2017-06-26T23:56:51.681Z,2.57
2017-06-26T23:59:19.973Z,2.20
